createdAt,value
2022-10-04T00:04:10.142Z,3.60
2022-10-04T00:08:27.710Z,3.20
2022-10-04T00:12:34.328Z,3.88
2022-10-04T00:16:39.456Z,3.42
2022-10-04T00:21:04.798Z,3.15
2022-10-04T00:25:22.167Z,3.42
2022-10-04T00:29:31.914Z,3.05
2022-10-04T00:33:35.784Z,3.45
2022-10-04T00:37:58.131Z,3.30
2022-10-04T00:42:12.767Z,3.55
2022-10-04T00:46:21.359Z,2.50
2022-10-04T00:50:30.939Z,2.80
2022-10-04T00:54:41.282Z,2.95
2022-10-04T00:59:04.699Z,4.40
2022-10-04T01:03:13.286Z,3.00
2022-10-04T01:07:22.160Z,3.20
2022-10-04T01:11:29.418Z,2.47
2022-10-04T01:15:38.555Z,3.08
2022-10-04T01:19:52.099Z,2.33
2022-10-04T01:24:22.647Z,2.97
2022-10-04T01:28:25.531Z,2.90
2022-10-04T01:32:28.965Z,2.40
2022-10-04T01:36:32.559Z,2.40
2022-10-04T01:40:40.442Z,2.60
2022-10-04T01:44:49.750Z,2.40
2022-10-04T01:48:55.375Z,2.70
2022-10-04T01:53:06.541Z,3.03
2022-10-04T01:57:17.937Z,2.70
2022-10-04T02:01:31.557Z,2.22
2022-10-04T02:05:37.653Z,2.83
2022-10-04T02:09:43.679Z,3.13
2022-10-04T02:13:50.261Z,2.42
2022-10-04T02:17:54.682Z,2.50
2022-10-04T02:21:58.241Z,2.60
2022-10-04T02:26:05.104Z,2.60
2022-10-04T02:30:12.556Z,2.78
2022-10-04T02:34:15.513Z,2.42
2022-10-04T02:38:22.488Z,2.78
2022-10-04T02:42:39.925Z,2.50
2022-10-04T02:46:52.451Z,2.45
2022-10-04T02:50:58.552Z,2.20
2022-10-04T02:55:05.459Z,2.90
2022-10-04T02:59:08.998Z,2.42
2022-10-04T03:03:25.911Z,2.63
2022-10-04T03:07:28.810Z,2.20
2022-10-04T03:11:36.841Z,1.98
2022-10-04T03:15:40.075Z,2.38
2022-10-04T03:19:45.345Z,3.40
2022-10-04T03:23:50.801Z,3.08
2022-10-04T03:27:54.107Z,1.98
2022-10-04T03:31:58.455Z,2.53
2022-10-04T03:36:03.395Z,2.67
2022-10-04T03:40:11.120Z,2.30
2022-10-04T03:44:17.328Z,2.20
2022-10-04T03:48:29.806Z,2.47
2022-10-04T03:52:37.797Z,2.67
2022-10-04T03:56:40.561Z,1.95
2022-10-04T04:00:46.961Z,2.05
2022-10-04T04:13:07.930Z,2.55
2022-10-04T04:17:35.158Z,2.90
2022-10-04T04:21:38.464Z,2.38
2022-10-04T04:25:45.907Z,2.53
2022-10-04T04:29:51.861Z,3.50
2022-10-04T04:34:00.687Z,4.47
2022-10-04T04:38:15.154Z,6.50
2022-10-04T04:42:23.561Z,4.20
2022-10-04T04:46:28.146Z,3.78
2022-10-04T04:50:34.318Z,4.13
2022-10-04T04:54:37.027Z,3.60
2022-10-04T04:58:46.521Z,3.20
2022-10-04T05:02:58.653Z,3.25
2022-10-04T05:07:03.994Z,10.65
2022-10-04T05:11:16.044Z,7.60
2022-10-04T05:15:20.377Z,5.90
2022-10-04T05:19:25.895Z,6.40
2022-10-04T05:23:28.750Z,4.10
2022-10-04T05:27:36.427Z,3.65
2022-10-04T05:31:49.230Z,3.90
2022-10-04T05:36:10.650Z,3.47
2022-10-04T05:40:32.114Z,3.00
2022-10-04T05:44:45.533Z,3.38
2022-10-04T05:48:54.428Z,2.95
2022-10-04T05:53:22.700Z,3.45
2022-10-04T05:57:39.570Z,3.58
2022-10-04T06:05:55.622Z,4.00
2022-10-04T06:10:12.482Z,4.07
2022-10-04T06:14:31.594Z,4.40
2022-10-04T06:18:50.613Z,4.05
2022-10-04T06:22:59.876Z,4.70
2022-10-04T06:27:11.887Z,3.80
2022-10-04T06:32:01.341Z,3.67
2022-10-04T06:36:33.309Z,3.20
2022-10-04T06:40:54.147Z,3.20
2022-10-04T06:45:17.852Z,4.40
2022-10-04T06:49:38.314Z,3.65
2022-10-04T06:53:52.094Z,3.65
2022-10-04T06:58:15.130Z,4.18
2022-10-04T07:02:22.416Z,4.45
2022-10-04T07:06:30.252Z,4.00
2022-10-04T07:10:37.673Z,4.30
2022-10-04T07:14:47.819Z,3.78
2022-10-04T07:18:58.541Z,4.00
2022-10-04T07:23:06.061Z,4.50
2022-10-04T07:27:14.181Z,3.80
2022-10-04T07:31:26.034Z,3.10
2022-10-04T07:35:36.046Z,4.63
2022-10-04T07:39:46.784Z,4.82
2022-10-04T07:43:54.382Z,3.75
2022-10-04T07:48:10.860Z,3.72
2022-10-04T07:52:32.804Z,3.47
2022-10-04T07:56:40.702Z,3.80
2022-10-04T08:00:50.667Z,3.97
2022-10-04T08:05:02.684Z,3.92
2022-10-04T08:09:24.192Z,4.38
2022-10-04T08:13:34.635Z,4.10
2022-10-04T08:17:52.114Z,3.58
2022-10-04T08:22:02.988Z,3.78
2022-10-04T08:26:23.035Z,4.35
2022-10-04T08:30:25.853Z,4.03
2022-10-04T08:34:44.805Z,3.22
2022-10-04T08:38:53.889Z,2.58
2022-10-04T08:43:15.607Z,2.85
2022-10-04T08:48:11.841Z,3.15
2022-10-04T08:52:59.890Z,3.03
2022-10-04T08:57:33.110Z,2.80
2022-10-04T09:02:24.293Z,3.15
2022-10-04T09:06:39.407Z,2.85
2022-10-04T09:11:17.338Z,2.80
2022-10-04T09:15:52.323Z,3.03
2022-10-04T09:20:14.016Z,2.88
2022-10-04T09:24:39.391Z,2.70
2022-10-04T09:29:17.075Z,2.88
2022-10-04T09:33:41.414Z,2.30
2022-10-04T09:37:59.867Z,2.70
2022-10-04T09:42:39.171Z,2.50
2022-10-04T09:46:59.996Z,2.20
2022-10-04T09:51:20.454Z,2.40
2022-10-04T09:55:41.352Z,2.00
2022-10-04T09:59:58.168Z,2.15
2022-10-04T10:04:34.211Z,2.10
2022-10-04T10:08:54.202Z,2.05
2022-10-04T10:13:32.940Z,2.10
2022-10-04T10:17:43.926Z,1.85
2022-10-04T10:21:59.261Z,2.20
2022-10-04T10:26:25.072Z,1.92
2022-10-04T10:30:38.409Z,1.83
2022-10-04T10:35:13.075Z,1.95
2022-10-04T10:40:03.399Z,1.67
2022-10-04T10:44:23.623Z,1.88
2022-10-04T10:48:53.719Z,1.70
2022-10-04T10:53:16.939Z,2.33
2022-10-04T10:57:34.798Z,2.13
2022-10-04T11:02:10.227Z,1.80
2022-10-04T11:06:53.803Z,2.13
2022-10-04T11:11:23.311Z,1.98
2022-10-04T11:15:40.596Z,2.08
2022-10-04T11:20:24.761Z,2.40
2022-10-04T11:24:47.760Z,2.03
2022-10-04T11:28:58.913Z,2.17
2022-10-04T11:33:35.231Z,2.08
2022-10-04T11:37:53.661Z,2.10
2022-10-04T11:42:00.637Z,2.10
2022-10-04T11:46:29.557Z,2.22
2022-10-04T11:50:45.480Z,2.00
2022-10-04T11:55:42.581Z,1.60
2022-10-04T11:59:54.849Z,2.25
2022-10-04T12:04:40.218Z,1.88
2022-10-04T12:08:54.115Z,2.00
2022-10-04T12:13:37.883Z,1.75
2022-10-04T12:18:06.119Z,2.03
2022-10-04T12:22:20.178Z,2.25
2022-10-04T12:26:39.674Z,2.08
2022-10-04T12:31:08.109Z,1.67
2022-10-04T12:35:27.220Z,1.88
2022-10-04T12:39:45.621Z,2.22
2022-10-04T12:44:00.274Z,1.65
2022-10-04T12:48:23.585Z,1.67
2022-10-04T12:52:35.427Z,2.00
2022-10-04T12:56:48.728Z,1.90
2022-10-04T13:00:57.732Z,1.70
2022-10-04T13:05:09.079Z,1.60
2022-10-04T13:09:18.779Z,1.58
2022-10-04T13:14:05.463Z,1.90
2022-10-04T13:18:21.244Z,1.50
2022-10-04T13:22:56.937Z,1.83
2022-10-04T13:27:06.037Z,1.60
2022-10-04T13:31:14.028Z,1.58
2022-10-04T13:35:23.713Z,1.80
2022-10-04T13:39:52.260Z,1.73
2022-10-04T13:44:08.914Z,1.92
2022-10-04T13:48:31.834Z,2.33
2022-10-04T13:53:04.491Z,1.70
2022-10-04T13:57:21.571Z,1.75
2022-10-04T14:01:49.375Z,2.17
2022-10-04T14:06:14.431Z,2.38
2022-10-04T14:10:35.625Z,2.50
2022-10-04T14:15:19.686Z,2.10
2022-10-04T14:19:57.982Z,2.47
2022-10-04T14:24:49.827Z,2.30
2022-10-04T14:29:11.905Z,2.33
2022-10-04T14:33:36.634Z,2.25
2022-10-04T14:38:04.348Z,2.08
2022-10-04T14:42:26.660Z,1.90
2022-10-04T14:46:41.631Z,2.35
2022-10-04T14:50:58.110Z,2.20
2022-10-04T14:59:31.091Z,2.33
2022-10-04T15:03:40.612Z,2.28
2022-10-04T15:07:49.884Z,2.15
2022-10-04T15:12:25.634Z,1.90
2022-10-04T15:16:33.832Z,2.25
2022-10-04T15:20:51.500Z,2.10
2022-10-04T15:24:55.221Z,2.20
2022-10-04T15:29:06.766Z,2.10
2022-10-04T15:33:26.899Z,2.30
2022-10-04T15:37:43.982Z,2.05
2022-10-04T15:41:52.119Z,2.33
2022-10-04T15:46:06.218Z,1.90
2022-10-04T15:50:25.862Z,1.90
2022-10-04T15:54:52.049Z,1.92
2022-10-04T15:59:12.613Z,1.70
2022-10-04T16:03:27.211Z,2.22
2022-10-04T16:07:40.471Z,2.22
2022-10-04T16:11:57.891Z,2.13
2022-10-04T16:16:30.303Z,2.00
2022-10-04T16:21:07.205Z,3.10
2022-10-04T16:25:38.546Z,2.47
2022-10-04T16:30:14.473Z,2.20
2022-10-04T16:34:34.971Z,2.90
2022-10-04T16:39:07.494Z,3.15
2022-10-04T16:43:21.960Z,3.13
2022-10-04T16:47:29.691Z,3.03
2022-10-04T16:51:53.686Z,3.03
2022-10-04T16:56:02.257Z,3.30
2022-10-04T17:00:37.788Z,3.80
2022-10-04T17:05:03.435Z,3.92
2022-10-04T17:09:18.596Z,3.58
2022-10-04T17:13:29.540Z,4.13
2022-10-04T17:17:45.226Z,3.92
2022-10-04T17:22:05.789Z,5.90
2022-10-04T17:26:19.099Z,7.18
2022-10-04T17:30:25.304Z,6.13
2022-10-04T17:34:42.074Z,32.20
2022-10-04T17:38:59.122Z,58.50
2022-10-04T17:43:07.951Z,71.38
2022-10-04T17:47:21.547Z,33.88
2022-10-04T17:51:59.345Z,10.53
2022-10-04T17:56:05.957Z,31.17
2022-10-04T18:04:19.886Z,17.77
2022-10-04T18:08:34.107Z,11.35
2022-10-04T18:12:45.275Z,15.35
2022-10-04T18:16:52.889Z,10.55
2022-10-04T18:21:07.585Z,9.23
2022-10-04T18:25:15.428Z,9.80
2022-10-04T18:29:37.842Z,8.57
2022-10-04T18:33:50.040Z,8.32
2022-10-04T18:37:55.972Z,10.00
2022-10-04T18:42:08.185Z,10.23
2022-10-04T18:46:20.985Z,9.88
2022-10-04T18:50:35.839Z,9.80
2022-10-04T18:54:48.362Z,8.35
2022-10-04T18:59:20.339Z,9.13
2022-10-04T19:03:33.766Z,8.60
2022-10-04T19:07:44.291Z,8.55
2022-10-04T19:11:54.811Z,8.55
2022-10-04T19:16:15.864Z,8.25
2022-10-04T19:20:24.923Z,7.47
2022-10-04T19:24:46.379Z,8.52
2022-10-04T19:29:00.180Z,8.25
2022-10-04T19:33:14.959Z,6.85
2022-10-04T19:37:24.832Z,5.93
2022-10-04T19:41:42.338Z,4.47
2022-10-04T19:46:05.388Z,4.45
2022-10-04T19:50:19.014Z,3.00
2022-10-04T19:54:29.361Z,3.60
2022-10-04T19:58:38.048Z,3.55
2022-10-04T20:02:47.613Z,3.50
2022-10-04T20:06:56.508Z,3.40
2022-10-04T20:11:18.358Z,4.53
2022-10-04T20:15:43.695Z,8.63
2022-10-04T20:19:47.818Z,5.80
2022-10-04T20:23:56.697Z,3.92
2022-10-04T20:28:03.657Z,5.53
2022-10-04T20:32:08.236Z,6.03
2022-10-04T20:36:14.307Z,6.70
2022-10-04T20:40:44.328Z,5.68
2022-10-04T20:45:20.838Z,5.88
2022-10-04T20:49:23.673Z,6.03
2022-10-04T20:53:30.369Z,4.93
2022-10-04T20:57:37.285Z,5.70
2022-10-04T21:01:46.233Z,5.68
2022-10-04T21:06:01.028Z,5.05
2022-10-04T21:10:17.846Z,5.57
2022-10-04T21:14:24.554Z,5.35
2022-10-04T21:22:42.848Z,4.70
2022-10-04T21:26:57.752Z,4.75
2022-10-04T21:31:01.554Z,4.70
2022-10-04T21:35:05.410Z,5.15
2022-10-04T21:39:08.135Z,5.90
2022-10-04T21:43:12.197Z,5.07
2022-10-04T21:47:14.988Z,5.60
2022-10-04T21:51:17.712Z,5.50
2022-10-04T21:55:20.402Z,7.07
2022-10-04T21:59:24.632Z,8.25
2022-10-04T22:03:27.334Z,5.57
2022-10-04T22:07:30.020Z,6.10
2022-10-04T22:11:32.739Z,7.28
2022-10-04T22:15:36.838Z,6.38
2022-10-04T22:19:39.543Z,5.60
2022-10-04T22:23:44.387Z,5.68
2022-10-04T22:27:48.041Z,4.85
2022-10-04T22:31:53.527Z,5.82
2022-10-04T22:35:57.499Z,7.53
2022-10-04T22:40:00.321Z,5.90
2022-10-04T22:44:13.220Z,5.50
2022-10-04T22:48:17.327Z,5.50
2022-10-04T22:52:22.302Z,5.35
2022-10-04T22:56:26.122Z,4.78
2022-10-04T23:00:28.810Z,4.60
2022-10-04T23:04:32.964Z,4.88
2022-10-04T23:08:35.689Z,4.72
2022-10-04T23:12:38.843Z,4.63
2022-10-04T23:16:42.931Z,5.40
2022-10-04T23:20:51.669Z,5.22
2022-10-04T23:24:55.398Z,5.25
2022-10-04T23:28:59.716Z,5.38
2022-10-04T23:33:02.454Z,5.00
2022-10-04T23:37:15.932Z,5.80
2022-10-04T23:41:20.338Z,4.80
2022-10-04T23:45:24.491Z,4.97
2022-10-04T23:49:27.264Z,5.00
2022-10-04T23:53:33.804Z,6.28
